sensor_id;sensor_type;location;lat;lon;timestamp;pressure;altitude;pressure_sealevel;temperature;humidity
40384;BME280;26097;42.366;23.818;2022-08-19T00:01:49;93912.13;;;16.74;86.92
40384;BME280;26097;42.366;23.818;2022-08-19T00:04:50;93916.72;;;16.72;87.53
40384;BME280;26097;42.366;23.818;2022-08-19T00:07:52;93903.38;;;16.65;87.95
40384;BME280;26097;42.366;23.818;2022-08-19T00:10:53;93902.22;;;16.67;88.70
40384;BME280;26097;42.366;23.818;2022-08-19T00:13:54;93907.78;;;16.64;89.46
40384;BME280;26097;42.366;23.818;2022-08-19T00:16:56;93902.66;;;16.54;90.71
40384;BME280;26097;42.366;23.818;2022-08-19T00:19:57;93901.53;;;16.57;90.39
40384;BME280;26097;42.366;23.818;2022-08-19T00:22:57;93903.50;;;16.55;90.68
40384;BME280;26097;42.366;23.818;2022-08-19T00:25:58;93899.53;;;16.51;91.62
40384;BME280;26097;42.366;23.818;2022-08-19T00:28:58;93906.25;;;16.45;92.69
40384;BME280;26097;42.366;23.818;2022-08-19T00:32:00;93892.56;;;16.41;93.07
40384;BME280;26097;42.366;23.818;2022-08-19T00:35:01;93889.13;;;16.41;93.53
40384;BME280;26097;42.366;23.818;2022-08-19T00:38:01;93890.59;;;16.44;93.10
40384;BME280;26097;42.366;23.818;2022-08-19T00:41:02;93894.28;;;16.51;93.19
40384;BME280;26097;42.366;23.818;2022-08-19T00:44:15;93896.22;;;16.49;92.97
40384;BME280;26097;42.366;23.818;2022-08-19T00:47:15;93895.22;;;16.50;93.15
40384;BME280;26097;42.366;23.818;2022-08-19T00:50:18;93896.84;;;16.42;93.76
40384;BME280;26097;42.366;23.818;2022-08-19T00:53:22;93899.34;;;16.44;93.69
40384;BME280;26097;42.366;23.818;2022-08-19T00:56:23;93899.78;;;16.39;94.48
40384;BME280;26097;42.366;23.818;2022-08-19T00:59:27;93891.59;;;16.42;94.12
40384;BME280;26097;42.366;23.818;2022-08-19T01:02:29;93904.78;;;16.51;94.11
40384;BME280;26097;42.366;23.818;2022-08-19T01:05:30;93905.75;;;16.50;94.04
40384;BME280;26097;42.366;23.818;2022-08-19T01:08:30;93900.66;;;16.48;94.75
40384;BME280;26097;42.366;23.818;2022-08-19T01:11:34;93901.53;;;16.57;93.65
40384;BME280;26097;42.366;23.818;2022-08-19T01:14:37;93910.75;;;16.69;92.54
40384;BME280;26097;42.366;23.818;2022-08-19T01:17:39;93906.03;;;16.73;92.38
40384;BME280;26097;42.366;23.818;2022-08-19T01:20:42;93906.88;;;16.82;92.04
40384;BME280;26097;42.366;23.818;2022-08-19T01:23:43;93901.63;;;16.82;92.02
40384;BME280;26097;42.366;23.818;2022-08-19T01:26:46;93903.25;;;16.83;91.87
40384;BME280;26097;42.366;23.818;2022-08-19T01:29:47;93904.63;;;16.95;90.81
40384;BME280;26097;42.366;23.818;2022-08-19T01:32:49;93903.34;;;16.99;90.34
40384;BME280;26097;42.366;23.818;2022-08-19T01:35:49;93901.66;;;16.90;91.09
40384;BME280;26097;42.366;23.818;2022-08-19T01:38:51;93910.81;;;16.86;91.14
40384;BME280;26097;42.366;23.818;2022-08-19T01:41:52;93905.88;;;16.83;91.67
40384;BME280;26097;42.366;23.818;2022-08-19T01:44:54;93904.56;;;16.87;91.32
40384;BME280;26097;42.366;23.818;2022-08-19T01:47:55;93915.94;;;16.88;91.27
40384;BME280;26097;42.366;23.818;2022-08-19T01:50:56;93916.28;;;16.93;90.59
40384;BME280;26097;42.366;23.818;2022-08-19T01:53:56;93915.47;;;16.92;90.75
40384;BME280;26097;42.366;23.818;2022-08-19T01:57:06;93919.09;;;16.91;91.15
40384;BME280;26097;42.366;23.818;2022-08-19T02:00:10;93918.09;;;16.92;91.05
40384;BME280;26097;42.366;23.818;2022-08-19T02:03:11;93912.00;;;16.92;90.56
40384;BME280;26097;42.366;23.818;2022-08-19T02:06:12;93912.13;;;16.82;90.95
40384;BME280;26097;42.366;23.818;2022-08-19T02:09:12;93909.81;;;16.79;91.57
40384;BME280;26097;42.366;23.818;2022-08-19T02:12:13;93907.47;;;16.67;92.12
40384;BME280;26097;42.366;23.818;2022-08-19T02:15:14;93905.63;;;16.60;93.11
40384;BME280;26097;42.366;23.818;2022-08-19T02:18:15;93904.09;;;16.49;94.27
40384;BME280;26097;42.366;23.818;2022-08-19T02:21:16;93907.22;;;16.44;94.54
40384;BME280;26097;42.366;23.818;2022-08-19T02:24:16;93905.56;;;16.43;95.15
40384;BME280;26097;42.366;23.818;2022-08-19T02:27:17;93906.72;;;16.40;94.85
40384;BME280;26097;42.366;23.818;2022-08-19T02:30:18;93911.63;;;16.35;95.83
40384;BME280;26097;42.366;23.818;2022-08-19T02:33:19;93909.97;;;16.34;95.98
40384;BME280;26097;42.366;23.818;2022-08-19T02:36:19;93907.59;;;16.23;97.40
40384;BME280;26097;42.366;23.818;2022-08-19T02:39:20;93911.00;;;16.15;98.35
40384;BME280;26097;42.366;23.818;2022-08-19T02:42:20;93905.38;;;16.10;99.27
40384;BME280;26097;42.366;23.818;2022-08-19T02:45:20;93910.13;;;16.06;99.27
40384;BME280;26097;42.366;23.818;2022-08-19T02:48:22;93906.81;;;16.04;99.64
40384;BME280;26097;42.366;23.818;2022-08-19T02:51:32;93915.16;;;15.99;100.00
40384;BME280;26097;42.366;23.818;2022-08-19T02:54:33;93917.75;;;15.91;100.00
40384;BME280;26097;42.366;23.818;2022-08-19T02:57:34;93920.53;;;15.90;100.00
40384;BME280;26097;42.366;23.818;2022-08-19T03:00:35;93924.13;;;15.89;100.00
40384;BME280;26097;42.366;23.818;2022-08-19T03:03:37;93928.00;;;15.84;100.00
40384;BME280;26097;42.366;23.818;2022-08-19T03:06:39;93919.78;;;15.79;100.00
40384;BME280;26097;42.366;23.818;2022-08-19T03:09:40;93922.53;;;15.78;100.00
40384;BME280;26097;42.366;23.818;2022-08-19T03:12:42;93924.81;;;15.73;100.00
40384;BME280;26097;42.366;23.818;2022-08-19T03:15:46;93932.31;;;15.67;100.00
40384;BME280;26097;42.366;23.818;2022-08-19T03:18:47;93933.44;;;15.65;100.00
40384;BME280;26097;42.366;23.818;2022-08-19T03:21:48;93930.59;;;15.58;100.00
40384;BME280;26097;42.366;23.818;2022-08-19T03:24:48;93941.84;;;15.50;100.00
40384;BME280;26097;42.366;23.818;2022-08-19T03:27:49;93929.91;;;15.56;100.00
40384;BME280;26097;42.366;23.818;2022-08-19T03:30:58;93929.84;;;15.66;100.00
40384;BME280;26097;42.366;23.818;2022-08-19T03:33:59;93939.81;;;15.62;100.00
40384;BME280;26097;42.366;23.818;2022-08-19T03:37:08;93933.91;;;15.60;100.00
40384;BME280;26097;42.366;23.818;2022-08-19T03:40:09;93935.72;;;15.60;100.00
40384;BME280;26097;42.366;23.818;2022-08-19T03:43:09;93943.72;;;15.58;100.00
40384;BME280;26097;42.366;23.818;2022-08-19T03:46:12;93944.63;;;15.67;100.00
40384;BME280;26097;42.366;23.818;2022-08-19T03:49:14;93945.78;;;15.64;100.00
40384;BME280;26097;42.366;23.818;2022-08-19T03:52:14;93952.16;;;15.62;100.00
40384;BME280;26097;42.366;23.818;2022-08-19T03:55:16;93946.53;;;15.56;100.00
40384;BME280;26097;42.366;23.818;2022-08-19T03:58:16;93951.25;;;15.53;100.00
40384;BME280;26097;42.366;23.818;2022-08-19T04:01:19;93955.13;;;15.67;100.00
40384;BME280;26097;42.366;23.818;2022-08-19T04:04:20;93953.84;;;15.71;100.00
40384;BME280;26097;42.366;23.818;2022-08-19T04:07:21;93961.16;;;15.77;100.00
40384;BME280;26097;42.366;23.818;2022-08-19T04:10:22;93961.16;;;15.77;100.00
40384;BME280;26097;42.366;23.818;2022-08-19T04:13:22;93953.94;;;15.79;100.00
40384;BME280;26097;42.366;23.818;2022-08-19T04:16:27;93959.94;;;15.90;100.00
40384;BME280;26097;42.366;23.818;2022-08-19T04:19:32;93951.31;;;15.97;100.00
40384;BME280;26097;42.366;23.818;2022-08-19T04:22:33;93957.75;;;16.03;100.00
40384;BME280;26097;42.366;23.818;2022-08-19T04:25:42;93960.16;;;16.15;100.00
40384;BME280;26097;42.366;23.818;2022-08-19T04:28:43;93956.94;;;16.29;100.00
40384;BME280;26097;42.366;23.818;2022-08-19T04:31:44;93957.00;;;16.37;100.00
40384;BME280;26097;42.366;23.818;2022-08-19T04:34:45;93952.44;;;16.48;100.00
40384;BME280;26097;42.366;23.818;2022-08-19T04:37:45;93955.47;;;16.61;100.00
40384;BME280;26097;42.366;23.818;2022-08-19T04:40:48;93956.69;;;16.75;100.00
40384;BME280;26097;42.366;23.818;2022-08-19T04:44:08;93957.59;;;16.92;100.00
40384;BME280;26097;42.366;23.818;2022-08-19T04:47:09;93962.94;;;17.09;100.00
40384;BME280;26097;42.366;23.818;2022-08-19T04:50:10;93960.19;;;17.27;100.00
40384;BME280;26097;42.366;23.818;2022-08-19T04:53:11;93950.03;;;17.40;100.00
40384;BME280;26097;42.366;23.818;2022-08-19T04:56:14;93951.00;;;17.56;100.00
40384;BME280;26097;42.366;23.818;2022-08-19T04:59:16;93952.34;;;17.68;100.00
40384;BME280;26097;42.366;23.818;2022-08-19T05:02:16;93953.19;;;17.85;100.00
40384;BME280;26097;42.366;23.818;2022-08-19T05:05:17;93945.16;;;18.04;100.00
40384;BME280;26097;42.366;23.818;2022-08-19T05:08:20;93951.56;;;18.18;100.00
40384;BME280;26097;42.366;23.818;2022-08-19T05:11:25;93950.19;;;18.38;100.00
40384;BME280;26097;42.366;23.818;2022-08-19T05:14:25;93946.53;;;18.56;100.00
40384;BME280;26097;42.366;23.818;2022-08-19T05:17:27;93952.41;;;18.75;100.00
40384;BME280;26097;42.366;23.818;2022-08-19T05:20:27;93944.75;;;18.96;100.00
40384;BME280;26097;42.366;23.818;2022-08-19T05:23:46;93947.16;;;19.15;100.00
40384;BME280;26097;42.366;23.818;2022-08-19T05:26:50;93952.84;;;19.35;100.00
40384;BME280;26097;42.366;23.818;2022-08-19T05:29:52;93957.03;;;19.52;100.00
40384;BME280;26097;42.366;23.818;2022-08-19T05:32:52;93945.66;;;19.75;100.00
40384;BME280;26097;42.366;23.818;2022-08-19T05:35:55;93957.41;;;19.96;100.00
40384;BME280;26097;42.366;23.818;2022-08-19T05:38:56;93952.28;;;20.18;100.00
40384;BME280;26097;42.366;23.818;2022-08-19T05:41:59;93949.38;;;20.43;98.38
40384;BME280;26097;42.366;23.818;2022-08-19T05:45:00;93955.44;;;20.66;98.69
40384;BME280;26097;42.366;23.818;2022-08-19T05:48:01;93960.09;;;20.79;96.90
40384;BME280;26097;42.366;23.818;2022-08-19T05:51:05;93954.19;;;20.92;95.57
40384;BME280;26097;42.366;23.818;2022-08-19T05:54:09;93956.91;;;21.14;93.40
40384;BME280;26097;42.366;23.818;2022-08-19T05:57:14;93959.31;;;21.46;92.74
40384;BME280;26097;42.366;23.818;2022-08-19T06:00:15;93956.53;;;21.91;81.82
40384;BME280;26097;42.366;23.818;2022-08-19T06:03:16;93960.81;;;22.14;82.06
40384;BME280;26097;42.366;23.818;2022-08-19T06:06:17;93960.53;;;22.30;80.83
40384;BME280;26097;42.366;23.818;2022-08-19T06:09:18;93952.75;;;22.50;79.37
40384;BME280;26097;42.366;23.818;2022-08-19T06:12:18;93956.78;;;22.75;76.38
40384;BME280;26097;42.366;23.818;2022-08-19T06:15:19;93955.97;;;23.16;72.90
40384;BME280;26097;42.366;23.818;2022-08-19T06:18:19;93956.38;;;23.62;68.88
40384;BME280;26097;42.366;23.818;2022-08-19T06:21:25;93954.78;;;23.81;68.79
40384;BME280;26097;42.366;23.818;2022-08-19T06:24:28;93952.75;;;23.90;69.23
40384;BME280;26097;42.366;23.818;2022-08-19T06:27:29;93958.94;;;24.04;68.91
40384;BME280;26097;42.366;23.818;2022-08-19T06:30:31;93952.78;;;24.17;69.36
40384;BME280;26097;42.366;23.818;2022-08-19T06:33:32;93953.63;;;24.24;68.38
40384;BME280;26097;42.366;23.818;2022-08-19T06:36:36;93955.66;;;24.35;67.66
40384;BME280;26097;42.366;23.818;2022-08-19T06:39:39;93949.53;;;24.42;68.46
40384;BME280;26097;42.366;23.818;2022-08-19T06:42:40;93954.41;;;24.72;65.87
40384;BME280;26097;42.366;23.818;2022-08-19T06:45:41;93957.50;;;24.89;65.91
40384;BME280;26097;42.366;23.818;2022-08-19T06:48:42;93949.44;;;25.02;65.31
40384;BME280;26097;42.366;23.818;2022-08-19T06:51:44;93951.06;;;25.03;66.04
40384;BME280;26097;42.366;23.818;2022-08-19T06:54:46;93948.38;;;25.10;65.20
40384;BME280;26097;42.366;23.818;2022-08-19T06:57:46;93940.78;;;25.20;65.23
40384;BME280;26097;42.366;23.818;2022-08-19T07:00:48;93948.09;;;25.38;64.85
40384;BME280;26097;42.366;23.818;2022-08-19T07:03:48;93948.03;;;25.59;65.27
40384;BME280;26097;42.366;23.818;2022-08-19T07:06:50;93948.34;;;25.76;65.18
40384;BME280;26097;42.366;23.818;2022-08-19T07:09:56;93942.44;;;25.99;60.65
40384;BME280;26097;42.366;23.818;2022-08-19T07:12:56;93943.44;;;26.05;62.03
40384;BME280;26097;42.366;23.818;2022-08-19T07:15:57;93939.94;;;26.04;60.73
40384;BME280;26097;42.366;23.818;2022-08-19T07:18:57;93946.63;;;26.14;60.33
40384;BME280;26097;42.366;23.818;2022-08-19T07:21:58;93937.97;;;26.50;58.32
40384;BME280;26097;42.366;23.818;2022-08-19T07:25:02;93941.69;;;26.93;52.05
40384;BME280;26097;42.366;23.818;2022-08-19T07:28:04;93937.22;;;27.06;52.05
40384;BME280;26097;42.366;23.818;2022-08-19T07:31:13;93936.03;;;27.20;46.34
40384;BME280;26097;42.366;23.818;2022-08-19T07:34:14;93944.97;;;27.33;49.48
40384;BME280;26097;42.366;23.818;2022-08-19T07:37:15;93943.47;;;27.37;47.50
40384;BME280;26097;42.366;23.818;2022-08-19T07:40:15;93953.47;;;27.60;45.05
40384;BME280;26097;42.366;23.818;2022-08-19T07:43:16;93950.25;;;27.70;45.94
40384;BME280;26097;42.366;23.818;2022-08-19T07:46:18;93947.75;;;27.75;46.06
40384;BME280;26097;42.366;23.818;2022-08-19T07:49:20;93948.00;;;27.86;45.13
40384;BME280;26097;42.366;23.818;2022-08-19T07:52:21;93950.59;;;28.04;45.31
40384;BME280;26097;42.366;23.818;2022-08-19T07:55:24;93955.97;;;28.04;44.64
40384;BME280;26097;42.366;23.818;2022-08-19T07:58:25;93948.34;;;28.20;44.66
40384;BME280;26097;42.366;23.818;2022-08-19T08:01:27;93946.25;;;28.22;43.92
40384;BME280;26097;42.366;23.818;2022-08-19T08:04:29;93941.16;;;28.32;43.47
40384;BME280;26097;42.366;23.818;2022-08-19T08:07:48;93948.38;;;28.44;44.02
40384;BME280;26097;42.366;23.818;2022-08-19T08:11:08;93939.44;;;28.62;43.98
40384;BME280;26097;42.366;23.818;2022-08-19T08:14:08;93937.56;;;28.74;41.94
40384;BME280;26097;42.366;23.818;2022-08-19T08:17:10;93938.75;;;28.90;41.37
40384;BME280;26097;42.366;23.818;2022-08-19T08:20:11;93941.66;;;29.01;41.06
40384;BME280;26097;42.366;23.818;2022-08-19T08:23:12;93936.28;;;29.01;41.04
40384;BME280;26097;42.366;23.818;2022-08-19T08:29:52;93940.47;;;29.08;38.23
40384;BME280;26097;42.366;23.818;2022-08-19T08:32:52;93942.56;;;29.18;38.84
40384;BME280;26097;42.366;23.818;2022-08-19T08:35:52;93932.03;;;29.29;39.45
40384;BME280;26097;42.366;23.818;2022-08-19T08:38:53;93927.81;;;29.33;39.59
40384;BME280;26097;42.366;23.818;2022-08-19T08:45:09;93937.16;;;29.30;37.91
40384;BME280;26097;42.366;23.818;2022-08-19T08:48:21;93937.03;;;29.49;36.89
40384;BME280;26097;42.366;23.818;2022-08-19T08:55:23;93926.06;;;29.39;36.42
40384;BME280;26097;42.366;23.818;2022-08-19T09:09:50;93917.81;;;29.69;36.22
40384;BME280;26097;42.366;23.818;2022-08-19T09:16:17;93912.81;;;29.90;36.87
40384;BME280;26097;42.366;23.818;2022-08-19T09:23:17;93913.38;;;29.92;36.85
40384;BME280;26097;42.366;23.818;2022-08-19T09:26:20;93902.13;;;29.95;36.37
40384;BME280;26097;42.366;23.818;2022-08-19T09:29:21;93915.88;;;30.11;36.51
40384;BME280;26097;42.366;23.818;2022-08-19T09:32:22;93899.75;;;30.11;36.19
40384;BME280;26097;42.366;23.818;2022-08-19T09:35:25;93909.19;;;30.30;35.66
40384;BME280;26097;42.366;23.818;2022-08-19T09:38:26;93903.81;;;30.30;36.19
40384;BME280;26097;42.366;23.818;2022-08-19T09:41:27;93888.75;;;30.29;36.15
40384;BME280;26097;42.366;23.818;2022-08-19T09:44:27;93887.84;;;30.41;37.06
40384;BME280;26097;42.366;23.818;2022-08-19T09:47:27;93886.31;;;30.84;36.36
40384;BME280;26097;42.366;23.818;2022-08-19T09:50:28;93892.09;;;30.71;34.34
40384;BME280;26097;42.366;23.818;2022-08-19T09:53:28;93887.25;;;30.73;34.58
40384;BME280;26097;42.366;23.818;2022-08-19T09:56:29;93879.13;;;30.68;35.86
40384;BME280;26097;42.366;23.818;2022-08-19T09:59:30;93888.31;;;30.72;35.65
40384;BME280;26097;42.366;23.818;2022-08-19T10:02:30;93872.50;;;30.75;35.72
40384;BME280;26097;42.366;23.818;2022-08-19T10:05:31;93867.44;;;30.79;34.35
40384;BME280;26097;42.366;23.818;2022-08-19T10:08:51;93859.56;;;30.95;34.25
40384;BME280;26097;42.366;23.818;2022-08-19T10:11:51;93861.53;;;30.82;34.02
40384;BME280;26097;42.366;23.818;2022-08-19T10:14:52;93869.88;;;31.03;34.40
40384;BME280;26097;42.366;23.818;2022-08-19T10:17:54;93857.09;;;30.93;33.66
40384;BME280;26097;42.366;23.818;2022-08-19T10:24:05;93860.94;;;31.19;33.58
40384;BME280;26097;42.366;23.818;2022-08-19T10:27:06;93850.97;;;31.42;33.58
40384;BME280;26097;42.366;23.818;2022-08-19T10:30:06;93854.38;;;31.60;32.36
40384;BME280;26097;42.366;23.818;2022-08-19T10:33:08;93844.53;;;31.71;33.00
40384;BME280;26097;42.366;23.818;2022-08-19T10:36:20;93830.22;;;31.65;32.08
40384;BME280;26097;42.366;23.818;2022-08-19T10:39:22;93836.16;;;31.67;30.42
40384;BME280;26097;42.366;23.818;2022-08-19T10:42:23;93831.00;;;31.66;30.48
40384;BME280;26097;42.366;23.818;2022-08-19T10:45:24;93842.63;;;31.66;31.12
40384;BME280;26097;42.366;23.818;2022-08-19T10:48:26;93847.28;;;31.76;30.60
40384;BME280;26097;42.366;23.818;2022-08-19T10:51:27;93848.50;;;31.63;30.11
40384;BME280;26097;42.366;23.818;2022-08-19T10:54:46;93842.38;;;31.73;31.31
40384;BME280;26097;42.366;23.818;2022-08-19T10:58:14;93834.19;;;31.85;30.39
40384;BME280;26097;42.366;23.818;2022-08-19T11:01:15;93833.22;;;32.01;30.85
40384;BME280;26097;42.366;23.818;2022-08-19T11:04:17;93835.78;;;32.13;30.23
40384;BME280;26097;42.366;23.818;2022-08-19T11:07:18;93824.91;;;32.41;31.41
40384;BME280;26097;42.366;23.818;2022-08-19T11:10:19;93827.06;;;32.39;30.53
40384;BME280;26097;42.366;23.818;2022-08-19T11:13:19;93826.63;;;32.57;31.24
40384;BME280;26097;42.366;23.818;2022-08-19T11:16:23;93825.75;;;32.41;30.26
40384;BME280;26097;42.366;23.818;2022-08-19T11:19:24;93815.13;;;32.29;31.27
40384;BME280;26097;42.366;23.818;2022-08-19T11:22:25;93816.19;;;32.28;31.74
40384;BME280;26097;42.366;23.818;2022-08-19T11:25:25;93823.88;;;32.47;31.57
40384;BME280;26097;42.366;23.818;2022-08-19T11:28:26;93812.03;;;32.53;31.38
40384;BME280;26097;42.366;23.818;2022-08-19T11:31:29;93818.06;;;32.66;30.56
40384;BME280;26097;42.366;23.818;2022-08-19T11:34:33;93811.00;;;32.59;31.67
40384;BME280;26097;42.366;23.818;2022-08-19T11:37:35;93816.53;;;32.85;31.90
40384;BME280;26097;42.366;23.818;2022-08-19T11:40:38;93817.66;;;32.89;30.95
40384;BME280;26097;42.366;23.818;2022-08-19T11:43:38;93811.19;;;32.90;30.88
40384;BME280;26097;42.366;23.818;2022-08-19T11:46:41;93809.03;;;32.93;30.50
40384;BME280;26097;42.366;23.818;2022-08-19T11:49:46;93805.47;;;32.87;30.60
40384;BME280;26097;42.366;23.818;2022-08-19T11:52:47;93802.00;;;32.92;31.25
40384;BME280;26097;42.366;23.818;2022-08-19T11:55:53;93790.56;;;32.69;30.19
40384;BME280;26097;42.366;23.818;2022-08-19T11:58:56;93792.72;;;32.77;30.80
40384;BME280;26097;42.366;23.818;2022-08-19T12:01:56;93792.09;;;33.13;30.92
40384;BME280;26097;42.366;23.818;2022-08-19T12:04:57;93787.25;;;33.20;30.72
40384;BME280;26097;42.366;23.818;2022-08-19T12:07:58;93781.56;;;33.11;30.44
40384;BME280;26097;42.366;23.818;2022-08-19T12:10:58;93780.22;;;33.14;30.80
40384;BME280;26097;42.366;23.818;2022-08-19T12:14:01;93781.06;;;33.30;30.48
40384;BME280;26097;42.366;23.818;2022-08-19T12:17:02;93784.91;;;33.50;30.43
40384;BME280;26097;42.366;23.818;2022-08-19T12:20:05;93781.63;;;33.42;30.18
40384;BME280;26097;42.366;23.818;2022-08-19T12:23:08;93778.97;;;33.73;30.61
40384;BME280;26097;42.366;23.818;2022-08-19T12:26:12;93768.47;;;33.72;31.18
40384;BME280;26097;42.366;23.818;2022-08-19T12:29:12;93769.25;;;33.78;29.57
40384;BME280;26097;42.366;23.818;2022-08-19T12:32:13;93770.09;;;33.99;30.37
40384;BME280;26097;42.366;23.818;2022-08-19T12:35:13;93763.31;;;33.75;30.05
40384;BME280;26097;42.366;23.818;2022-08-19T12:38:14;93757.91;;;34.12;30.29
40384;BME280;26097;42.366;23.818;2022-08-19T12:41:15;93764.94;;;33.82;30.02
40384;BME280;26097;42.366;23.818;2022-08-19T12:44:18;93759.53;;;33.97;30.29
40384;BME280;26097;42.366;23.818;2022-08-19T12:47:19;93751.44;;;34.02;29.77
40384;BME280;26097;42.366;23.818;2022-08-19T12:50:20;93752.78;;;33.95;29.07
40384;BME280;26097;42.366;23.818;2022-08-19T12:53:21;93752.47;;;34.27;29.39
40384;BME280;26097;42.366;23.818;2022-08-19T12:56:21;93742.75;;;34.26;29.46
40384;BME280;26097;42.366;23.818;2022-08-19T12:59:22;93743.75;;;34.62;30.01
40384;BME280;26097;42.366;23.818;2022-08-19T13:02:22;93746.50;;;34.36;29.75
40384;BME280;26097;42.366;23.818;2022-08-19T13:05:26;93748.69;;;34.18;29.31
40384;BME280;26097;42.366;23.818;2022-08-19T13:08:27;93750.88;;;34.21;29.75
40384;BME280;26097;42.366;23.818;2022-08-19T13:11:27;93747.59;;;34.19;29.85
40384;BME280;26097;42.366;23.818;2022-08-19T13:14:34;93758.41;;;34.29;29.80
40384;BME280;26097;42.366;23.818;2022-08-19T13:17:35;93757.59;;;34.24;29.05
40384;BME280;26097;42.366;23.818;2022-08-19T13:20:36;93755.47;;;33.69;28.53
40384;BME280;26097;42.366;23.818;2022-08-19T13:23:37;93748.44;;;34.20;29.29
40384;BME280;26097;42.366;23.818;2022-08-19T13:26:38;93744.34;;;34.32;29.25
40384;BME280;26097;42.366;23.818;2022-08-19T13:29:40;93745.88;;;34.70;29.21
40384;BME280;26097;42.366;23.818;2022-08-19T13:45:43;93747.34;;;35.07;28.90
40384;BME280;26097;42.366;23.818;2022-08-19T13:48:43;93739.41;;;35.21;29.23
40384;BME280;26097;42.366;23.818;2022-08-19T13:51:44;93730.75;;;35.19;28.41
40384;BME280;26097;42.366;23.818;2022-08-19T13:54:44;93736.03;;;35.40;29.19
40384;BME280;26097;42.366;23.818;2022-08-19T13:57:45;93732.78;;;34.93;27.19
40384;BME280;26097;42.366;23.818;2022-08-19T14:00:46;93731.34;;;35.16;29.53
40384;BME280;26097;42.366;23.818;2022-08-19T14:03:47;93732.75;;;34.98;27.44
40384;BME280;26097;42.366;23.818;2022-08-19T14:06:48;93733.47;;;34.58;27.73
40384;BME280;26097;42.366;23.818;2022-08-19T14:09:49;93725.16;;;35.05;27.92
40384;BME280;26097;42.366;23.818;2022-08-19T14:12:53;93724.56;;;35.19;27.75
40384;BME280;26097;42.366;23.818;2022-08-19T14:15:55;93722.84;;;35.28;28.08
40384;BME280;26097;42.366;23.818;2022-08-19T14:18:55;93723.06;;;35.37;28.29
40384;BME280;26097;42.366;23.818;2022-08-19T14:21:56;93733.06;;;34.86;27.17
40384;BME280;26097;42.366;23.818;2022-08-19T14:24:57;93727.03;;;34.28;26.63
40384;BME280;26097;42.366;23.818;2022-08-19T14:27:58;93728.13;;;34.27;26.54
40384;BME280;26097;42.366;23.818;2022-08-19T14:30:58;93718.84;;;34.65;27.03
40384;BME280;26097;42.366;23.818;2022-08-19T14:33:59;93723.94;;;34.77;26.36
40384;BME280;26097;42.366;23.818;2022-08-19T14:36:59;93716.81;;;34.91;27.27
40384;BME280;26097;42.366;23.818;2022-08-19T14:40:00;93711.72;;;34.84;27.14
40384;BME280;26097;42.366;23.818;2022-08-19T14:43:02;93713.81;;;34.93;26.13
40384;BME280;26097;42.366;23.818;2022-08-19T14:46:04;93703.84;;;34.83;26.25
40384;BME280;26097;42.366;23.818;2022-08-19T14:49:05;93703.19;;;34.51;26.79
40384;BME280;26097;42.366;23.818;2022-08-19T14:52:05;93702.31;;;34.66;26.64
40384;BME280;26097;42.366;23.818;2022-08-19T14:55:06;93699.84;;;34.75;26.50
40384;BME280;26097;42.366;23.818;2022-08-19T14:58:07;93694.69;;;34.79;27.18
40384;BME280;26097;42.366;23.818;2022-08-19T15:01:09;93698.22;;;34.74;26.73
40384;BME280;26097;42.366;23.818;2022-08-19T15:04:09;93694.66;;;34.84;27.81
40384;BME280;26097;42.366;23.818;2022-08-19T15:07:10;93690.09;;;34.79;28.33
40384;BME280;26097;42.366;23.818;2022-08-19T15:10:13;93698.28;;;34.64;26.76
40384;BME280;26097;42.366;23.818;2022-08-19T15:13:13;93695.34;;;34.55;27.14
40384;BME280;26097;42.366;23.818;2022-08-19T15:16:14;93689.13;;;34.44;26.76
40384;BME280;26097;42.366;23.818;2022-08-19T15:19:17;93691.84;;;34.44;28.10
40384;BME280;26097;42.366;23.818;2022-08-19T15:22:18;93695.06;;;34.51;28.54
40384;BME280;26097;42.366;23.818;2022-08-19T15:25:19;93683.56;;;33.99;28.52
40384;BME280;26097;42.366;23.818;2022-08-19T15:28:24;93691.66;;;34.04;30.40
40384;BME280;26097;42.366;23.818;2022-08-19T15:31:24;93678.44;;;33.87;31.40
40384;BME280;26097;42.366;23.818;2022-08-19T15:34:25;93684.97;;;33.65;31.41
40384;BME280;26097;42.366;23.818;2022-08-19T15:37:26;93681.72;;;33.53;29.08
40384;BME280;26097;42.366;23.818;2022-08-19T15:40:26;93680.59;;;33.28;28.82
40384;BME280;26097;42.366;23.818;2022-08-19T15:43:27;93673.56;;;33.11;31.37
40384;BME280;26097;42.366;23.818;2022-08-19T15:46:29;93683.72;;;32.68;32.97
40384;BME280;26097;42.366;23.818;2022-08-19T15:49:30;93673.31;;;32.33;34.01
40384;BME280;26097;42.366;23.818;2022-08-19T15:52:31;93669.41;;;32.03;36.11
40384;BME280;26097;42.366;23.818;2022-08-19T15:55:36;93675.09;;;31.69;35.71
40384;BME280;26097;42.366;23.818;2022-08-19T15:58:37;93673.13;;;31.59;33.41
40384;BME280;26097;42.366;23.818;2022-08-19T16:01:56;93674.72;;;31.23;35.01
40384;BME280;26097;42.366;23.818;2022-08-19T16:05:18;93664.19;;;30.94;34.51
40384;BME280;26097;42.366;23.818;2022-08-19T16:08:37;93671.06;;;30.57;36.54
40384;BME280;26097;42.366;23.818;2022-08-19T16:11:38;93682.16;;;30.38;37.73
40384;BME280;26097;42.366;23.818;2022-08-19T16:14:38;93681.00;;;29.95;38.88
40384;BME280;26097;42.366;23.818;2022-08-19T16:17:39;93674.06;;;29.42;41.55
40384;BME280;26097;42.366;23.818;2022-08-19T16:20:40;93676.13;;;29.06;41.65
40384;BME280;26097;42.366;23.818;2022-08-19T16:23:40;93684.34;;;28.70;41.48
40384;BME280;26097;42.366;23.818;2022-08-19T16:26:42;93681.41;;;28.43;42.35
40384;BME280;26097;42.366;23.818;2022-08-19T16:29:43;93682.53;;;27.94;44.24
40384;BME280;26097;42.366;23.818;2022-08-19T16:32:43;93686.16;;;27.52;44.68
40384;BME280;26097;42.366;23.818;2022-08-19T16:35:44;93685.50;;;27.14;45.23